createdAt,value
2018-07-27T00:00:15.873Z,0.200000
2018-07-27T00:03:15.070Z,0.225000
2018-07-27T00:06:15.410Z,0.200000
2018-07-27T00:09:15.514Z,0.200000
2018-07-27T00:12:15.838Z,0.187500
2018-07-27T00:15:15.077Z,0.175000
2018-07-27T00:18:15.408Z,0.162500
2018-07-27T00:21:15.512Z,0.187500
2018-07-27T00:24:15.776Z,1.362500
2018-07-27T00:27:15.807Z,0.200000
2018-07-27T00:30:15.018Z,0.162500
2018-07-27T00:33:15.846Z,0.187500
2018-07-27T00:36:15.228Z,0.200000
2018-07-27T00:39:15.455Z,0.212500
2018-07-27T00:42:15.733Z,0.187500
2018-07-27T00:45:15.986Z,0.162500
2018-07-27T00:48:15.469Z,0.187500
2018-07-27T00:51:15.655Z,0.162500
2018-07-27T00:54:15.929Z,0.187500
2018-07-27T00:57:15.177Z,0.200000
2018-07-27T01:00:15.402Z,0.200000
2018-07-27T01:03:15.554Z,0.287500
2018-07-27T01:06:15.855Z,0.125000
2018-07-27T01:09:15.000Z,0.287500
2018-07-27T01:12:15.278Z,0.162500
2018-07-27T01:15:15.358Z,0.250000
2018-07-27T01:18:15.627Z,0.100000
2018-07-27T01:21:15.043Z,0.125000
2018-07-27T01:24:15.492Z,0.262500
2018-07-27T01:27:15.636Z,0.200000
2018-07-27T01:30:15.908Z,0.150000
2018-07-27T01:33:14.998Z,0.637500
2018-07-27T01:36:15.309Z,0.187500
2018-07-27T01:39:15.649Z,0.200000
2018-07-27T01:42:15.780Z,0.162500
2018-07-27T01:45:14.967Z,0.200000
2018-07-27T01:48:15.219Z,0.300000
2018-07-27T01:51:15.337Z,0.200000
2018-07-27T01:54:15.527Z,0.462500
2018-07-27T01:57:15.714Z,0.175000
2018-07-27T02:00:21.013Z,0.137500
2018-07-27T02:03:15.390Z,0.112500
2018-07-27T02:06:15.745Z,0.112500
2018-07-27T02:09:15.931Z,0.200000
2018-07-27T02:12:15.141Z,0.175000
2018-07-27T02:15:15.271Z,0.175000
2018-07-27T02:18:15.535Z,0.100000
2018-07-27T02:21:15.698Z,0.225000
2018-07-27T02:24:15.961Z,0.187500
2018-07-27T02:27:15.140Z,0.100000
2018-07-27T02:30:15.300Z,0.150000
2018-07-27T02:33:15.457Z,0.225000
2018-07-27T02:36:15.689Z,0.125000
2018-07-27T02:39:15.023Z,0.100000
2018-07-27T02:42:15.246Z,0.200000
2018-07-27T02:45:15.447Z,0.200000
2018-07-27T02:48:15.639Z,0.237500
2018-07-27T02:51:15.788Z,0.425000
2018-07-27T02:54:15.120Z,0.100000
2018-07-27T02:57:15.385Z,0.150000
2018-07-27T03:00:15.707Z,0.400000
2018-07-27T03:03:15.016Z,0.100000
2018-07-27T03:06:15.224Z,0.175000
2018-07-27T03:09:15.511Z,0.175000
2018-07-27T03:12:15.857Z,0.675000
2018-07-27T03:15:15.039Z,0.100000
2018-07-27T03:18:15.348Z,0.200000
2018-07-27T03:21:15.627Z,0.125000
2018-07-27T03:24:15.782Z,0.137500
2018-07-27T03:27:14.847Z,0.200000
2018-07-27T03:30:15.110Z,0.175000
2018-07-27T03:33:15.485Z,0.100000
2018-07-27T03:36:15.655Z,0.275000
2018-07-27T03:39:15.010Z,0.125000
2018-07-27T03:42:15.346Z,0.225000
2018-07-27T03:45:15.639Z,0.412500
2018-07-27T03:48:15.830Z,0.862500
2018-07-27T03:51:14.990Z,0.225000
2018-07-27T03:54:15.186Z,0.112500
2018-07-27T03:57:15.512Z,0.187500
2018-07-27T04:00:15.767Z,0.200000
2018-07-27T04:03:15.044Z,0.312500
2018-07-27T04:06:15.299Z,0.100000
2018-07-27T04:09:15.489Z,0.100000
2018-07-27T04:12:15.693Z,0.187500
2018-07-27T04:15:15.680Z,0.225000
2018-07-27T04:18:14.835Z,0.200000
2018-07-27T04:21:15.196Z,0.100000
2018-07-27T04:24:15.482Z,0.125000
2018-07-27T04:27:15.962Z,0.262500
2018-07-27T04:30:15.289Z,0.137500
2018-07-27T04:33:15.541Z,0.225000
2018-07-27T04:36:15.890Z,0.175000
2018-07-27T04:39:15.052Z,0.200000
2018-07-27T04:42:15.150Z,0.100000
2018-07-27T04:45:15.373Z,0.150000
2018-07-27T04:48:15.821Z,0.237500
2018-07-27T04:51:14.975Z,0.175000
2018-07-27T04:54:15.302Z,0.325000
2018-07-27T04:57:15.561Z,0.225000
2018-07-27T05:00:16.081Z,0.175000
2018-07-27T05:03:15.553Z,0.237500
2018-07-27T05:06:15.912Z,0.200000
2018-07-27T05:09:15.605Z,0.375000
2018-07-27T05:12:16.182Z,0.562500
2018-07-27T05:15:15.924Z,0.225000
2018-07-27T05:18:15.656Z,0.400000
2018-07-27T05:21:15.289Z,0.862500
2018-07-27T05:24:15.917Z,0.900000
2018-07-27T05:27:15.799Z,1.087500
2018-07-27T05:30:15.487Z,1.075000
2018-07-27T05:33:16.325Z,1.050000
2018-07-27T05:36:16.038Z,2.212500
2018-07-27T05:39:15.639Z,1.187500
2018-07-27T05:42:16.248Z,0.787500
2018-07-27T05:45:15.922Z,1.812500
2018-07-27T05:48:15.709Z,1.162500
2018-07-27T05:51:15.446Z,1.500000
2018-07-27T05:54:16.158Z,1.312500
2018-07-27T05:57:15.842Z,1.487500
2018-07-27T06:00:15.620Z,1.937500
2018-07-27T06:03:16.348Z,2.175000
2018-07-27T06:06:15.349Z,2.525000
2018-07-27T06:09:15.967Z,2.475000
2018-07-27T06:12:15.624Z,2.262500
2018-07-27T06:15:15.436Z,2.150000
2018-07-27T06:18:16.428Z,3.512500
2018-07-27T06:21:16.340Z,2.200000
2018-07-27T06:24:16.084Z,2.512500
2018-07-27T06:27:15.243Z,4.462500
2018-07-27T06:30:15.871Z,4.887500
2018-07-27T06:33:15.844Z,3.712500
2018-07-27T06:36:15.462Z,6.600000
2018-07-27T06:39:16.308Z,7.550000
2018-07-27T06:42:16.077Z,9.512500
2018-07-27T06:45:15.837Z,7.912500
2018-07-27T06:48:15.397Z,6.900000
2018-07-27T06:51:16.006Z,9.537500
2018-07-27T06:54:15.687Z,10.675000
2018-07-27T06:57:15.412Z,11.387500
2018-07-27T07:00:15.400Z,10.987500
2018-07-27T07:03:16.064Z,11.987500
2018-07-27T07:06:15.808Z,10.037500
2018-07-27T07:09:15.631Z,13.700000
2018-07-27T07:12:16.484Z,17.575000
2018-07-27T07:15:16.393Z,15.337500
2018-07-27T07:18:16.492Z,12.137500
2018-07-27T07:21:16.584Z,16.637500
2018-07-27T07:24:16.270Z,15.512500
2018-07-27T07:27:16.663Z,16.800000
2018-07-27T07:30:16.022Z,19.012500
2018-07-27T07:33:16.505Z,20.737500
2018-07-27T07:36:17.374Z,19.925000
2018-07-27T07:39:17.150Z,17.837500
2018-07-27T07:42:16.975Z,20.675000
2018-07-27T07:45:16.740Z,19.300000
2018-07-27T07:48:16.923Z,19.637500
2018-07-27T07:51:16.988Z,20.562500
2018-07-27T07:54:17.126Z,16.850000
2018-07-27T07:57:17.166Z,15.475000
2018-07-27T08:00:17.316Z,12.287500
2018-07-27T08:03:17.565Z,11.387500
2018-07-27T08:06:17.285Z,9.750000
2018-07-27T08:09:17.804Z,7.125000
2018-07-27T08:12:17.658Z,9.437500
2018-07-27T08:15:17.427Z,6.662500
2018-07-27T08:18:17.512Z,7.675000
2018-07-27T08:21:17.764Z,10.375000
2018-07-27T08:24:18.305Z,8.500000
2018-07-27T08:27:18.219Z,7.675000
2018-07-27T08:30:17.875Z,7.887500
2018-07-27T08:33:17.798Z,6.462500
2018-07-27T08:36:17.445Z,8.537500
2018-07-27T08:39:16.886Z,7.287500
2018-07-27T08:42:17.293Z,7.437500
2018-07-27T08:45:17.422Z,9.500000
2018-07-27T08:48:17.230Z,7.850000
2018-07-27T08:51:16.513Z,8.550000
2018-07-27T08:54:17.370Z,8.775000
2018-07-27T08:57:17.023Z,8.875000
2018-07-27T09:00:16.516Z,8.150000
2018-07-27T09:03:17.230Z,8.950000
2018-07-27T09:06:16.541Z,9.375000
2018-07-27T09:09:17.053Z,7.937500
2018-07-27T09:12:16.437Z,6.962500
2018-07-27T09:15:16.857Z,8.625000
2018-07-27T09:18:16.360Z,8.962500
2018-07-27T09:21:16.802Z,9.387500
2018-07-27T09:24:16.298Z,9.737500
2018-07-27T09:27:16.842Z,8.300000
2018-07-27T09:30:16.167Z,9.062500
2018-07-27T09:33:16.708Z,8.475000
2018-07-27T09:36:16.672Z,10.287500
2018-07-27T09:39:16.489Z,10.687500
2018-07-27T09:42:17.266Z,11.287500
2018-07-27T09:45:16.614Z,11.187500
2018-07-27T09:48:16.753Z,12.975000
2018-07-27T09:51:16.724Z,9.137500
2018-07-27T09:54:17.018Z,11.862500
2018-07-27T09:57:17.475Z,12.575000
2018-07-27T10:00:18.071Z,9.537500
2018-07-27T10:03:17.999Z,12.887500
2018-07-27T10:06:17.994Z,12.462500
2018-07-27T10:09:17.937Z,11.612500
2018-07-27T10:12:17.937Z,13.625000
2018-07-27T10:15:18.100Z,11.525000
2018-07-27T10:18:18.071Z,16.087500
2018-07-27T10:21:18.118Z,12.825000
2018-07-27T10:24:18.195Z,11.937500
2018-07-27T10:27:18.333Z,10.675000
2018-07-27T10:30:18.216Z,10.012500
2018-07-27T10:33:18.271Z,12.337500
2018-07-27T10:36:18.206Z,11.475000
2018-07-27T10:39:18.217Z,12.525000
2018-07-27T10:42:18.672Z,13.925000
2018-07-27T10:45:18.226Z,13.200000
2018-07-27T10:48:18.325Z,11.087500
2018-07-27T10:51:18.162Z,16.212500
2018-07-27T10:54:18.739Z,12.612500
2018-07-27T10:57:18.015Z,16.687500
2018-07-27T11:00:18.449Z,16.187500
2018-07-27T11:03:18.831Z,13.437500
2018-07-27T11:06:18.553Z,17.225000
2018-07-27T11:09:18.599Z,11.387500
2018-07-27T11:12:18.427Z,13.400000
2018-07-27T11:15:18.450Z,14.212500
2018-07-27T11:18:18.306Z,14.325000
2018-07-27T11:21:18.509Z,12.562500
2018-07-27T11:24:18.881Z,16.475000
2018-07-27T11:27:19.199Z,16.312500
2018-07-27T11:30:19.332Z,13.500000
2018-07-27T11:33:18.244Z,14.912500
2018-07-27T11:36:18.802Z,10.925000
2018-07-27T11:39:18.466Z,12.475000
2018-07-27T11:42:17.578Z,13.000000
2018-07-27T11:45:17.790Z,14.487500
2018-07-27T11:48:17.379Z,15.225000
2018-07-27T11:51:17.576Z,14.525000
2018-07-27T11:54:16.374Z,14.775000
2018-07-27T11:57:16.748Z,14.950000
2018-07-27T12:00:15.812Z,13.337500
2018-07-27T12:03:15.628Z,10.662500
2018-07-27T12:06:16.209Z,9.650000
2018-07-27T12:09:15.890Z,9.237500
2018-07-27T12:12:15.709Z,6.237500
2018-07-27T12:15:15.852Z,4.900000
2018-07-27T12:18:15.838Z,5.575000
2018-07-27T12:21:15.705Z,5.137500
2018-07-27T12:24:15.499Z,3.475000
2018-07-27T12:27:16.168Z,4.612500
2018-07-27T12:30:15.828Z,3.462500
2018-07-27T12:33:15.334Z,3.512500
2018-07-27T12:36:15.954Z,3.562500
2018-07-27T12:39:15.492Z,3.225000
2018-07-27T12:42:16.230Z,3.400000
2018-07-27T12:45:16.083Z,4.350000
2018-07-27T12:48:15.798Z,5.162500
2018-07-27T12:51:15.359Z,4.512500
2018-07-27T12:54:15.964Z,3.325000
2018-07-27T12:57:15.541Z,2.437500
2018-07-27T13:00:16.087Z,3.800000
2018-07-27T13:03:15.775Z,3.175000
2018-07-27T13:06:15.599Z,3.262500
2018-07-27T13:09:15.512Z,2.537500
2018-07-27T13:12:16.212Z,3.775000
2018-07-27T13:15:15.821Z,3.850000
2018-07-27T13:18:15.685Z,2.762500
2018-07-27T13:21:15.528Z,4.537500
2018-07-27T13:24:16.188Z,3.225000
2018-07-27T13:27:15.948Z,1.937500
2018-07-27T13:30:15.771Z,1.987500
2018-07-27T13:33:15.331Z,1.750000
2018-07-27T13:36:16.025Z,2.550000
2018-07-27T13:39:15.706Z,3.225000
2018-07-27T13:42:15.313Z,3.725000
2018-07-27T13:45:15.288Z,2.775000
2018-07-27T13:48:15.915Z,3.000000
2018-07-27T13:51:16.102Z,2.387500
2018-07-27T13:54:15.678Z,2.450000
2018-07-27T13:57:15.810Z,2.512500
2018-07-27T14:00:15.443Z,3.950000
2018-07-27T14:03:16.093Z,3.950000
2018-07-27T14:06:15.750Z,2.725000
2018-07-27T14:09:15.493Z,2.837500
2018-07-27T14:12:16.113Z,2.912500
2018-07-27T14:15:15.775Z,3.700000
2018-07-27T14:18:15.691Z,2.750000
2018-07-27T14:21:16.324Z,2.062500
2018-07-27T14:24:16.061Z,3.237500
2018-07-27T14:27:15.749Z,2.437500
2018-07-27T14:30:15.390Z,2.962500
2018-07-27T14:33:16.026Z,1.650000
2018-07-27T14:36:15.840Z,2.050000
2018-07-27T14:39:15.474Z,2.825000
2018-07-27T14:42:16.262Z,2.687500
2018-07-27T14:45:15.887Z,2.337500
2018-07-27T14:48:15.531Z,2.775000
2018-07-27T14:51:16.236Z,1.412500
2018-07-27T14:54:16.015Z,2.187500
2018-07-27T14:57:15.636Z,2.800000
2018-07-27T15:00:16.303Z,2.475000
2018-07-27T15:03:15.926Z,2.662500
2018-07-27T15:06:15.603Z,2.437500
2018-07-27T15:09:16.314Z,4.500000
2018-07-27T15:12:16.113Z,3.125000
2018-07-27T15:15:15.826Z,2.137500
2018-07-27T15:18:15.607Z,1.425000
2018-07-27T15:21:16.126Z,2.437500
2018-07-27T15:24:15.841Z,1.762500
2018-07-27T15:27:15.543Z,1.537500
2018-07-27T15:30:16.111Z,2.637500
2018-07-27T15:33:15.844Z,1.850000
2018-07-27T15:36:15.593Z,1.825000
2018-07-27T15:39:16.261Z,4.112500
2018-07-27T15:42:16.084Z,1.962500
2018-07-27T15:45:16.029Z,2.200000
2018-07-27T15:48:15.722Z,2.112500
2018-07-27T15:51:15.405Z,2.987500
2018-07-27T15:54:16.031Z,1.875000
2018-07-27T15:57:15.528Z,2.212500
2018-07-27T16:00:15.421Z,1.712500
2018-07-27T16:03:16.148Z,2.900000
2018-07-27T16:06:15.768Z,0.987500
2018-07-27T16:09:15.453Z,0.887500
2018-07-27T16:12:16.135Z,1.350000
2018-07-27T16:15:15.998Z,1.725000
2018-07-27T16:18:15.724Z,2.162500
2018-07-27T16:21:16.211Z,3.187500
2018-07-27T16:24:15.813Z,1.737500
2018-07-27T16:27:15.456Z,2.237500
2018-07-27T16:30:16.129Z,0.812500
2018-07-27T16:33:15.690Z,2.212500
2018-07-27T16:36:16.255Z,1.650000
2018-07-27T16:39:15.884Z,2.150000
2018-07-27T16:42:15.531Z,1.425000
2018-07-27T16:45:16.246Z,1.112500
2018-07-27T16:48:15.827Z,1.525000
2018-07-27T16:51:15.454Z,1.887500
2018-07-27T16:54:16.049Z,1.200000
2018-07-27T16:57:15.784Z,0.712500
2018-07-27T17:00:15.409Z,0.650000
2018-07-27T17:03:16.092Z,0.987500
2018-07-27T17:06:15.769Z,1.400000
2018-07-27T17:09:15.567Z,1.300000
2018-07-27T17:12:16.333Z,1.000000
2018-07-27T17:15:16.089Z,0.612500
2018-07-27T17:18:15.824Z,1.362500
2018-07-27T17:21:15.441Z,0.887500
2018-07-27T17:24:15.961Z,0.975000
2018-07-27T17:27:15.835Z,1.637500
2018-07-27T17:30:15.384Z,1.362500
2018-07-27T17:33:16.112Z,1.912500
2018-07-27T17:36:15.843Z,1.312500
2018-07-27T17:39:15.670Z,0.912500
2018-07-27T17:42:15.459Z,1.537500
2018-07-27T17:45:16.074Z,1.712500
2018-07-27T17:48:15.841Z,1.100000
2018-07-27T17:51:15.525Z,2.487500
2018-07-27T17:54:16.296Z,1.900000
2018-07-27T17:57:15.896Z,2.262500
2018-07-27T18:00:15.541Z,1.562500
2018-07-27T18:03:15.725Z,2.275000
2018-07-27T18:06:15.523Z,2.625000
2018-07-27T18:09:16.227Z,2.125000
2018-07-27T18:12:16.055Z,1.887500
2018-07-27T18:15:15.902Z,2.150000
2018-07-27T18:18:15.696Z,0.700000
2018-07-27T18:21:16.206Z,1.400000
2018-07-27T18:24:15.973Z,1.212500
2018-07-27T18:27:15.910Z,0.725000
2018-07-27T18:30:15.648Z,0.762500
2018-07-27T18:33:15.373Z,1.062500
2018-07-27T18:36:16.043Z,1.937500
2018-07-27T18:39:15.759Z,0.875000
2018-07-27T18:42:15.435Z,0.887500
2018-07-27T18:45:16.106Z,1.175000
2018-07-27T18:48:15.723Z,1.487500
2018-07-27T18:51:15.336Z,0.600000
2018-07-27T18:54:15.977Z,0.525000
2018-07-27T18:57:15.535Z,0.375000
2018-07-27T19:00:15.324Z,1.337500
2018-07-27T19:03:17.178Z,1.187500
2018-07-27T19:06:15.724Z,0.650000
2018-07-27T19:09:15.375Z,0.562500
2018-07-27T19:12:16.219Z,0.737500
2018-07-27T19:15:15.804Z,1.225000
2018-07-27T19:18:15.415Z,0.825000
2018-07-27T19:21:15.943Z,0.275000
2018-07-27T19:24:15.835Z,0.300000
2018-07-27T19:27:15.565Z,0.512500
2018-07-27T19:30:15.479Z,0.375000
2018-07-27T19:33:16.069Z,0.775000
2018-07-27T19:36:15.759Z,0.500000
2018-07-27T19:39:15.330Z,0.337500
2018-07-27T19:42:15.982Z,0.475000
2018-07-27T19:45:15.506Z,0.300000
2018-07-27T19:48:16.205Z,0.550000
2018-07-27T19:51:15.890Z,0.275000
2018-07-27T19:54:15.555Z,0.375000
2018-07-27T19:57:16.363Z,0.687500
2018-07-27T20:00:16.796Z,0.625000
2018-07-27T20:03:15.689Z,0.450000
2018-07-27T20:06:16.235Z,0.375000
2018-07-27T20:09:16.117Z,1.037500
2018-07-27T20:12:15.668Z,0.375000
2018-07-27T20:15:15.368Z,0.225000
2018-07-27T20:18:16.062Z,0.425000
2018-07-27T20:21:15.620Z,0.712500
2018-07-27T20:24:16.173Z,0.675000
2018-07-27T20:27:15.892Z,0.400000
2018-07-27T20:30:15.879Z,0.587500
2018-07-27T20:33:15.569Z,0.950000
2018-07-27T20:36:16.226Z,0.375000
2018-07-27T20:39:16.169Z,0.487500
2018-07-27T20:42:15.696Z,0.450000
2018-07-27T20:45:16.261Z,0.525000
2018-07-27T20:48:15.909Z,0.750000
2018-07-27T20:51:16.084Z,0.262500
2018-07-27T20:54:15.795Z,0.900000
2018-07-27T20:57:15.485Z,0.537500
2018-07-27T21:00:16.274Z,0.575000
2018-07-27T21:03:16.143Z,0.425000
2018-07-27T21:06:15.852Z,0.962500
2018-07-27T21:09:15.626Z,0.625000
2018-07-27T21:12:16.271Z,0.400000
2018-07-27T21:15:16.103Z,0.337500
2018-07-27T21:18:15.712Z,0.487500
2018-07-27T21:21:16.491Z,0.725000
2018-07-27T21:24:15.580Z,0.250000
2018-07-27T21:27:16.210Z,1.600000
2018-07-27T21:30:16.168Z,0.987500
2018-07-27T21:33:15.731Z,0.287500
2018-07-27T21:36:15.758Z,0.625000
2018-07-27T21:39:15.721Z,0.500000
2018-07-27T21:42:16.328Z,0.487500
2018-07-27T21:45:15.939Z,0.225000
2018-07-27T21:48:15.489Z,0.625000
2018-07-27T21:51:16.112Z,0.250000
2018-07-27T21:54:15.631Z,0.900000
2018-07-27T21:57:16.189Z,0.600000
2018-07-27T22:00:15.660Z,0.250000
2018-07-27T22:03:15.299Z,0.837500
2018-07-27T22:06:15.853Z,0.875000
2018-07-27T22:09:15.325Z,0.412500
2018-07-27T22:12:15.831Z,1.062500
2018-07-27T22:15:15.836Z,0.787500
2018-07-27T22:18:15.308Z,0.562500
2018-07-27T22:21:15.749Z,1.350000
2018-07-27T22:24:15.232Z,0.237500
2018-07-27T22:27:15.773Z,0.237500
2018-07-27T22:30:16.139Z,0.562500
2018-07-27T22:33:15.652Z,0.400000
2018-07-27T22:36:16.139Z,0.700000
2018-07-27T22:39:15.724Z,0.875000
2018-07-27T22:42:15.192Z,0.562500
2018-07-27T22:45:15.660Z,1.637500
2018-07-27T22:48:15.974Z,0.825000
2018-07-27T22:51:15.427Z,0.275000
2018-07-27T22:54:15.817Z,0.650000
2018-07-27T22:57:15.169Z,0.187500
2018-07-27T23:00:15.555Z,0.212500
2018-07-27T23:03:16.262Z,0.312500
2018-07-27T23:06:15.668Z,0.400000
2018-07-27T23:09:15.236Z,0.387500
2018-07-27T23:12:15.680Z,0.275000
2018-07-27T23:15:16.097Z,0.200000
2018-07-27T23:18:15.509Z,0.262500
2018-07-27T23:21:16.151Z,0.275000
2018-07-27T23:24:15.659Z,0.225000
2018-07-27T23:27:16.185Z,0.287500
2018-07-27T23:30:15.631Z,0.362500
2018-07-27T23:33:16.178Z,0.225000
2018-07-27T23:36:15.769Z,0.600000
2018-07-27T23:39:15.300Z,0.200000
2018-07-27T23:42:15.689Z,0.400000
2018-07-27T23:45:16.035Z,0.487500
2018-07-27T23:48:15.446Z,0.262500
2018-07-27T23:51:15.881Z,0.287500
2018-07-27T23:54:15.263Z,0.225000
2018-07-27T23:57:15.665Z,0.212500
